Strona główna
METAR-TAF:

METAR-TAF

Lotnisko :

Port lotniczy Ngaoundéré

Ngaoundéré, Kamerun

Szerokość geograficzna: 07-21N, Długość geograficzna: 013-34E, wysokość: 1114 m

Aktualna obserwacja pogody

Raport powstał 4 godziny i 3 minut temu, godzina 18:00 UTC
Cisza
Temperatura 22°C
Wilgotność 33%
Ciśnienie 1016 hPa
Widzialność: 8000 m

METAR: FKKN 291800Z 00000KT 8000 NSC 22/05 Q1016

czas: 23:03 (22:03 UTC)


TAF: brakujący

Obserwacja i prognoza pogody dla ponad 4000 lotnisk (raport METAR i TAF).

Dostępne stacje oznaczono żółtymi i czerwonymi punktami na mapie.

Najedź kursorem aby zobaczyć nazwę stacji.

Kliknij aby zobaczyć obserwacje i prognozy pogody.

Aby zmienić mapę: kliknij na zielony przycisk z czarnym krzyżykiem, aby powiększyć; na zielony przycisk z myślnikiem, aby pomniejszyć; na zielone strzałki, aby przejść do map sąsiednich.


METAR-TAF: